Time;durP1;ratioP1;P1;durP2;ratioP2;P2;SDS_P1;SDS_P2;PMS_P1;PMS_P2;Temp;Humidity;BMP_temperature;BMP_pressure;BME280_temperature;BME280_humidity;BME280_pressure;Samples;Min_cycle;Max_cycle;Signal;HPM_P1;HPM_P2
2023/08/05 00:00:06;;;;;;;7.30;4.47;;;;;;;;;;5028999;28;20133;-67
2023/08/05 00:02:32;;;;;;;8.73;4.85;;;;;;;;;;5029834;28;20565;-67
2023/08/05 00:04:59;;;;;;;8.45;5.30;;;;;;;;;;5029533;28;20049;-66
2023/08/05 00:07:25;;;;;;;6.05;4.82;;;;;;;;;;5029781;28;20045;-66
2023/08/05 00:09:52;;;;;;;7.55;5.18;;;;;;;;;;5028984;28;20052;-66
2023/08/05 00:12:20;;;;;;;8.50;5.38;;;;;;;;;;5029988;28;20052;-66
2023/08/05 00:14:47;;;;;;;6.93;4.57;;;;;;;;;;5030022;28;20049;-66
2023/08/05 00:17:14;;;;;;;8.90;4.68;;;;;;;;;;5029490;28;20045;-67
2023/08/05 00:19:40;;;;;;;8.02;5.00;;;;;;;;;;5029723;28;20414;-67
2023/08/05 00:22:07;;;;;;;6.93;5.32;;;;;;;;;;5029682;28;20495;-66
2023/08/05 00:24:33;;;;;;;8.93;5.45;;;;;;;;;;5029754;28;20050;-67
2023/08/05 00:27:00;;;;;;;9.82;5.47;;;;;;;;;;5029133;28;20045;-67
2023/08/05 00:29:28;;;;;;;8.07;5.40;;;;;;;;;;5029642;28;20045;-67
2023/08/05 00:31:54;;;;;;;11.05;5.32;;;;;;;;;;5028948;28;20046;-67
2023/08/05 00:34:21;;;;;;;9.32;5.72;;;;;;;;;;5029890;28;20055;-66
2023/08/05 00:36:47;;;;;;;6.60;5.20;;;;;;;;;;5029253;28;20045;-66
2023/08/05 00:39:14;;;;;;;6.63;5.15;;;;;;;;;;5029549;28;20045;-66
2023/08/05 00:41:41;;;;;;;8.88;5.40;;;;;;;;;;5029824;28;20053;-66
2023/08/05 00:44:07;;;;;;;8.10;5.60;;;;;;;;;;5033492;28;20454;-66
2023/08/05 00:46:35;;;;;;;8.70;5.55;;;;;;;;;;5033791;28;20049;-66
2023/08/05 00:49:02;;;;;;;7.45;4.97;;;;;;;;;;5033105;28;20055;-68
2023/08/05 00:51:29;;;;;;;7.53;5.68;;;;;;;;;;5032770;28;20045;-66
2023/08/05 00:53:55;;;;;;;9.23;5.03;;;;;;;;;;5033065;28;20045;-66
2023/08/05 00:56:23;;;;;;;7.43;5.47;;;;;;;;;;5033318;28;20045;-67
2023/08/05 00:58:49;;;;;;;7.60;5.05;;;;;;;;;;5032607;28;20049;-66
2023/08/05 01:01:16;;;;;;;5.43;4.60;;;;;;;;;;5032764;28;20050;-67
2023/08/05 01:03:44;;;;;;;8.05;5.53;;;;;;;;;;5032806;28;20041;-66
2023/08/05 01:06:12;;;;;;;7.90;4.78;;;;;;;;;;5033413;28;20140;-66
2023/08/05 01:08:39;;;;;;;9.40;5.00;;;;;;;;;;5032729;28;20051;-67
2023/08/05 01:11:06;;;;;;;7.80;5.03;;;;;;;;;;5032579;28;20060;-66
2023/08/05 01:13:33;;;;;;;6.22;4.45;;;;;;;;;;5032766;28;20821;-66
2023/08/05 01:15:59;;;;;;;7.78;4.95;;;;;;;;;;5033058;28;20053;-66
2023/08/05 01:18:28;;;;;;;9.10;4.80;;;;;;;;;;5033065;28;20049;-66
2023/08/05 01:20:58;;;;;;;6.57;4.82;;;;;;;;;;5032151;28;20049;-66
2023/08/05 01:23:35;;;;;;;6.60;4.40;;;;;;;;;;5033016;28;20042;-66
2023/08/05 01:26:04;;;;;;;6.55;4.90;;;;;;;;;;5032322;28;20049;-66
2023/08/05 01:28:31;;;;;;;5.95;4.65;;;;;;;;;;5033342;28;20053;-66
2023/08/05 01:30:59;;;;;;;8.20;4.53;;;;;;;;;;5032246;28;20048;-66
2023/08/05 01:33:27;;;;;;;5.82;4.53;;;;;;;;;;5032898;28;20049;-66
2023/08/05 01:35:53;;;;;;;6.75;4.45;;;;;;;;;;5032438;28;20511;-66
2023/08/05 01:38:20;;;;;;;12.40;5.28;;;;;;;;;;5032713;28;20057;-66
2023/08/05 01:40:46;;;;;;;8.90;4.80;;;;;;;;;;5031716;28;20052;-67
2023/08/05 01:43:14;;;;;;;5.80;4.65;;;;;;;;;;5032940;28;20042;-66
2023/08/05 01:45:41;;;;;;;6.25;4.57;;;;;;;;;;5032110;28;20419;-66
2023/08/05 01:48:07;;;;;;;5.65;4.28;;;;;;;;;;5032517;28;20046;-67
2023/08/05 01:50:35;;;;;;;6.03;4.85;;;;;;;;;;5031857;28;20047;-66
2023/08/05 01:53:02;;;;;;;9.25;4.90;;;;;;;;;;5031593;28;20410;-67
2023/08/05 01:55:29;;;;;;;8.70;4.97;;;;;;;;;;5032642;28;20053;-66
2023/08/05 01:57:55;;;;;;;6.88;5.03;;;;;;;;;;5031881;28;20501;-66
2023/08/05 02:00:23;;;;;;;7.85;4.88;;;;;;;;;;5031803;28;20712;-67
2023/08/05 02:02:50;;;;;;;6.00;4.80;;;;;;;;;;5031767;28;20077;-66
2023/08/05 02:05:17;;;;;;;11.10;4.57;;;;;;;;;;5031899;28;20045;-66
2023/08/05 02:07:43;;;;;;;5.53;4.28;;;;;;;;;;5031905;28;20041;-66
2023/08/05 02:10:10;;;;;;;8.90;4.63;;;;;;;;;;5031731;28;20045;-67
2023/08/05 02:12:37;;;;;;;8.73;4.68;;;;;;;;;;5031721;28;20096;-66
2023/08/05 02:15:04;;;;;;;5.60;4.22;;;;;;;;;;5032113;28;20045;-67
2023/08/05 02:17:32;;;;;;;8.55;4.55;;;;;;;;;;5031658;28;20107;-66
2023/08/05 02:19:58;;;;;;;7.90;4.88;;;;;;;;;;5031188;28;20053;-67
2023/08/05 02:22:25;;;;;;;10.57;4.80;;;;;;;;;;5031812;28;20542;-66
2023/08/05 02:24:52;;;;;;;6.95;4.40;;;;;;;;;;5031632;28;20095;-67
2023/08/05 02:27:19;;;;;;;6.72;4.68;;;;;;;;;;5031836;28;20534;-67
2023/08/05 02:29:46;;;;;;;6.68;4.55;;;;;;;;;;5030810;28;20658;-67
2023/08/05 02:32:12;;;;;;;9.52;4.97;;;;;;;;;;5031862;28;20128;-67
2023/08/05 02:34:40;;;;;;;6.03;4.47;;;;;;;;;;5031319;28;20056;-66
2023/08/05 02:37:07;;;;;;;10.35;4.90;;;;;;;;;;5031867;28;20046;-66
2023/08/05 02:39:33;;;;;;;7.50;5.55;;;;;;;;;;5030390;28;20053;-66
2023/08/05 02:42:00;;;;;;;5.32;4.10;;;;;;;;;;5031512;28;20045;-66
2023/08/05 02:44:26;;;;;;;4.65;3.92;;;;;;;;;;5031057;28;20051;-66
2023/08/05 02:46:53;;;;;;;8.73;4.65;;;;;;;;;;5031328;28;20045;-66
2023/08/05 02:49:19;;;;;;;9.18;5.05;;;;;;;;;;5030629;28;20053;-66
2023/08/05 02:51:47;;;;;;;8.55;4.68;;;;;;;;;;5030592;28;20041;-66
2023/08/05 02:54:14;;;;;;;9.82;5.15;;;;;;;;;;5031577;28;20472;-66
2023/08/05 02:56:40;;;;;;;8.18;5.20;;;;;;;;;;5030927;28;20045;-66
2023/08/05 02:59:07;;;;;;;5.88;4.95;;;;;;;;;;5031276;28;20046;-66
2023/08/05 03:01:35;;;;;;;8.75;4.43;;;;;;;;;;5030084;28;20061;-67
2023/08/05 03:04:02;;;;;;;5.78;4.25;;;;;;;;;;5030370;28;20042;-66
2023/08/05 03:06:29;;;;;;;6.07;4.38;;;;;;;;;;5030256;28;20059;-66
2023/08/05 03:08:56;;;;;;;8.20;4.95;;;;;;;;;;5030992;28;20412;-66
2023/08/05 03:11:23;;;;;;;8.60;5.80;;;;;;;;;;5029970;28;20047;-66
2023/08/05 03:13:50;;;;;;;10.25;5.68;;;;;;;;;;5031062;28;20052;-66
2023/08/05 03:16:16;;;;;;;11.02;6.32;;;;;;;;;;5030150;28;20045;-67
2023/08/05 03:18:43;;;;;;;12.80;6.63;;;;;;;;;;5030819;28;20406;-67
2023/08/05 03:21:09;;;;;;;10.15;5.95;;;;;;;;;;5029781;28;20049;-66
2023/08/05 03:23:36;;;;;;;11.13;6.57;;;;;;;;;;5030845;28;20411;-67
2023/08/05 03:26:04;;;;;;;9.52;6.68;;;;;;;;;;5030826;28;20055;-66
2023/08/05 03:28:30;;;;;;;9.45;6.78;;;;;;;;;;5030092;28;20414;-66
2023/08/05 03:30:57;;;;;;;9.98;6.35;;;;;;;;;;5029857;28;20053;-67
2023/08/05 03:33:23;;;;;;;10.32;5.53;;;;;;;;;;5030040;28;20041;-67
2023/08/05 03:35:50;;;;;;;6.90;5.40;;;;;;;;;;5030579;28;20045;-66
2023/08/05 03:38:16;;;;;;;10.77;5.90;;;;;;;;;;5030093;28;20655;-66
2023/08/05 03:40:43;;;;;;;8.55;5.85;;;;;;;;;;5029962;28;20046;-67
2023/08/05 03:43:11;;;;;;;12.48;6.45;;;;;;;;;;5030203;28;20052;-67
2023/08/05 03:45:37;;;;;;;10.88;6.55;;;;;;;;;;5030237;28;20055;-67
2023/08/05 03:48:05;;;;;;;23.33;7.07;;;;;;;;;;5029775;28;20045;-66
2023/08/05 03:50:31;;;;;;;10.77;6.80;;;;;;;;;;5039130;28;20049;-66
2023/08/05 03:52:58;;;;;;;17.40;6.63;;;;;;;;;;5049769;28;20067;-66
2023/08/05 03:55:26;;;;;;;11.88;6.88;;;;;;;;;;5049963;28;20045;-66
2023/08/05 03:57:52;;;;;;;11.52;6.63;;;;;;;;;;5049937;28;20047;-67
2023/08/05 04:00:21;;;;;;;16.17;7.07;;;;;;;;;;5049336;28;20491;-67
2023/08/05 04:02:47;;;;;;;12.35;6.85;;;;;;;;;;5049939;28;20056;-67
2023/08/05 04:05:14;;;;;;;10.10;7.28;;;;;;;;;;5062888;22;20056;-70
2023/08/05 04:07:40;;;;;;;14.73;7.80;;;;;;;;;;5048732;28;20053;-71
2023/08/05 04:10:08;;;;;;;11.75;7.47;;;;;;;;;;5048156;28;20052;-71
2023/08/05 04:12:35;;;;;;;11.18;6.28;;;;;;;;;;5049031;28;20498;-71
2023/08/05 04:15:03;;;;;;;16.35;7.40;;;;;;;;;;5048545;28;20049;-71
2023/08/05 04:17:31;;;;;;;25.23;7.47;;;;;;;;;;5049138;28;20494;-71
2023/08/05 04:19:58;;;;;;;16.45;6.50;;;;;;;;;;5048077;28;20049;-71
2023/08/05 04:22:26;;;;;;;12.40;6.97;;;;;;;;;;5049215;28;20051;-71
2023/08/05 04:24:53;;;;;;;11.20;7.05;;;;;;;;;;5048377;28;20431;-71
2023/08/05 04:27:21;;;;;;;12.35;7.00;;;;;;;;;;5049328;28;20149;-71
2023/08/05 04:29:48;;;;;;;9.63;6.60;;;;;;;;;;5048768;28;20068;-71
2023/08/05 04:32:15;;;;;;;7.72;5.97;;;;;;;;;;5049039;28;20045;-71
2023/08/05 04:34:43;;;;;;;7.53;5.60;;;;;;;;;;5049367;28;20131;-71
2023/08/05 04:37:17;;;;;;;9.32;5.60;;;;;;;;;;5048488;28;20486;-71
2023/08/05 04:39:44;;;;;;;7.30;5.88;;;;;;;;;;5048202;28;20053;-71
2023/08/05 04:42:10;;;;;;;12.88;6.82;;;;;;;;;;5048744;28;20383;-71
2023/08/05 04:44:40;;;;;;;10.38;6.07;;;;;;;;;;5049222;28;20437;-71
2023/08/05 04:47:06;;;;;;;7.75;5.25;;;;;;;;;;5049500;28;20410;-71
2023/08/05 04:49:33;;;;;;;8.13;5.65;;;;;;;;;;5049490;28;20067;-71
2023/08/05 04:52:05;;;;;;;14.23;6.28;;;;;;;;;;5049273;28;20057;-71
2023/08/05 04:54:32;;;;;;;9.40;6.20;;;;;;;;;;5049969;28;20060;-71
2023/08/05 04:56:58;;;;;;;12.65;6.78;;;;;;;;;;5049146;28;20140;-71
2023/08/05 04:59:25;;;;;;;7.57;6.13;;;;;;;;;;5049596;28;20064;-71
2023/08/05 05:01:52;;;;;;;9.32;5.95;;;;;;;;;;5049202;28;20075;-71
2023/08/05 05:04:18;;;;;;;8.40;5.75;;;;;;;;;;5049440;28;20048;-71
2023/08/05 05:06:45;;;;;;;8.95;6.40;;;;;;;;;;5049267;28;20049;-71
2023/08/05 05:09:13;;;;;;;7.53;5.55;;;;;;;;;;5049293;28;20067;-71
2023/08/05 05:11:40;;;;;;;8.38;5.88;;;;;;;;;;5049439;28;20041;-71
2023/08/05 05:14:07;;;;;;;8.25;6.00;;;;;;;;;;5049028;28;20041;-71
2023/08/05 05:16:33;;;;;;;12.07;6.70;;;;;;;;;;5049601;28;20463;-71
2023/08/05 05:19:00;;;;;;;8.75;6.25;;;;;;;;;;5048915;28;20071;-71
2023/08/05 05:21:26;;;;;;;8.73;6.32;;;;;;;;;;5048948;28;20079;-71
2023/08/05 05:23:53;;;;;;;10.32;6.45;;;;;;;;;;5049399;28;20053;-70
2023/08/05 05:26:21;;;;;;;11.40;6.07;;;;;;;;;;5049788;28;20280;-71
2023/08/05 05:28:47;;;;;;;12.48;6.20;;;;;;;;;;5051707;28;20330;-71
2023/08/05 05:31:14;;;;;;;8.02;5.65;;;;;;;;;;5052953;28;20124;-71
2023/08/05 05:33:42;;;;;;;9.57;5.95;;;;;;;;;;5052685;28;20045;-71
2023/08/05 05:36:09;;;;;;;8.85;5.70;;;;;;;;;;5053085;28;20438;-71
2023/08/05 05:38:35;;;;;;;8.20;4.95;;;;;;;;;;5053089;28;20134;-71
2023/08/05 05:41:02;;;;;;;8.00;5.65;;;;;;;;;;5052037;28;20048;-70
2023/08/05 05:43:30;;;;;;;10.93;7.00;;;;;;;;;;5052853;28;20044;-71
2023/08/05 05:45:56;;;;;;;7.20;5.22;;;;;;;;;;5052384;28;20139;-71
2023/08/05 05:48:23;;;;;;;7.20;5.18;;;;;;;;;;5052531;28;20045;-71
2023/08/05 05:50:52;;;;;;;7.07;5.07;;;;;;;;;;5052197;28;20055;-71
2023/08/05 05:53:19;;;;;;;6.65;4.88;;;;;;;;;;5052942;28;20041;-71
2023/08/05 05:55:45;;;;;;;7.82;5.82;;;;;;;;;;5052472;28;20391;-70
2023/08/05 05:58:12;;;;;;;9.20;5.25;;;;;;;;;;5052683;28;20045;-70
2023/08/05 06:00:40;;;;;;;7.43;5.15;;;;;;;;;;5051519;28;20052;-71
2023/08/05 06:03:07;;;;;;;8.57;5.93;;;;;;;;;;5052350;28;20103;-71
2023/08/05 06:05:32;;;;;;;6.88;4.85;;;;;;;;;;5052179;28;20047;-71
2023/08/05 06:07:59;;;;;;;6.85;5.80;;;;;;;;;;5052277;28;20561;-71
2023/08/05 06:10:26;;;;;;;6.40;5.00;;;;;;;;;;5052014;28;20059;-71
2023/08/05 06:12:52;;;;;;;6.80;5.07;;;;;;;;;;5051891;28;20495;-71
2023/08/05 06:15:21;;;;;;;7.88;5.95;;;;;;;;;;5052089;28;20041;-71
2023/08/05 06:17:49;;;;;;;7.40;5.25;;;;;;;;;;5051458;28;20507;-71
2023/08/05 06:20:16;;;;;;;7.00;5.00;;;;;;;;;;5052023;28;20052;-71
2023/08/05 06:22:42;;;;;;;6.80;4.75;;;;;;;;;;5051838;28;20576;-70
2023/08/05 06:25:09;;;;;;;7.68;5.00;;;;;;;;;;5052121;28;20488;-71
2023/08/05 06:27:36;;;;;;;7.70;5.32;;;;;;;;;;5051588;28;20049;-71
2023/08/05 06:30:02;;;;;;;9.18;5.47;;;;;;;;;;5051256;28;20045;-71
2023/08/05 06:32:29;;;;;;;6.78;4.82;;;;;;;;;;5051492;28;20473;-71
2023/08/05 06:34:57;;;;;;;6.55;4.85;;;;;;;;;;5051650;28;20041;-71
2023/08/05 06:37:24;;;;;;;5.28;4.55;;;;;;;;;;5051531;28;20203;-71
2023/08/05 06:39:50;;;;;;;6.35;4.53;;;;;;;;;;5050068;28;20044;-71
2023/08/05 06:42:17;;;;;;;8.85;5.10;;;;;;;;;;5051891;28;20041;-71
2023/08/05 06:44:44;;;;;;;7.28;5.40;;;;;;;;;;5050957;28;20055;-71
2023/08/05 06:47:11;;;;;;;6.20;4.45;;;;;;;;;;5051722;28;20052;-71
2023/08/05 06:49:37;;;;;;;5.88;5.03;;;;;;;;;;5050837;28;20045;-71
2023/08/05 06:52:06;;;;;;;7.13;4.72;;;;;;;;;;5051645;28;20131;-71
2023/08/05 06:54:32;;;;;;;5.88;5.22;;;;;;;;;;5051191;28;20137;-71
2023/08/05 06:56:59;;;;;;;5.65;4.85;;;;;;;;;;5051108;28;20390;-71
2023/08/05 06:59:26;;;;;;;5.53;4.53;;;;;;;;;;5051153;28;20052;-71
2023/08/05 07:01:53;;;;;;;7.00;4.78;;;;;;;;;;5051481;28;20106;-71
2023/08/05 07:04:20;;;;;;;7.65;5.15;;;;;;;;;;5051489;28;20045;-71
2023/08/05 07:06:46;;;;;;;7.32;4.85;;;;;;;;;;5051487;28;20049;-71
2023/08/05 07:09:14;;;;;;;5.65;4.43;;;;;;;;;;5051263;28;20174;-71
2023/08/05 07:11:41;;;;;;;5.47;4.43;;;;;;;;;;5050761;28;20327;-71
2023/08/05 07:14:07;;;;;;;4.63;4.13;;;;;;;;;;5051534;28;20483;-71
2023/08/05 07:16:34;;;;;;;5.55;4.50;;;;;;;;;;5050442;28;20136;-70
2023/08/05 07:19:00;;;;;;;5.32;4.68;;;;;;;;;;5050834;28;20053;-70
2023/08/05 07:21:27;;;;;;;5.82;4.32;;;;;;;;;;5050166;28;20056;-71
2023/08/05 07:23:53;;;;;;;5.50;4.65;;;;;;;;;;5050972;28;20045;-71
2023/08/05 07:26:21;;;;;;;6.68;4.55;;;;;;;;;;5050344;28;20474;-71
2023/08/05 07:28:48;;;;;;;5.13;4.63;;;;;;;;;;5050918;28;20049;-71
2023/08/05 07:31:16;;;;;;;5.43;4.60;;;;;;;;;;5050276;28;20053;-71
2023/08/05 07:33:46;;;;;;;6.63;4.65;;;;;;;;;;5050790;28;20503;-71
2023/08/05 07:36:15;;;;;;;5.63;4.45;;;;;;;;;;5050353;28;20049;-70
2023/08/05 07:38:43;;;;;;;5.30;4.53;;;;;;;;;;5050467;28;20041;-71
2023/08/05 07:41:11;;;;;;;5.70;5.03;;;;;;;;;;5049952;28;20056;-71
2023/08/05 07:43:39;;;;;;;5.68;4.70;;;;;;;;;;5050837;28;20417;-71
2023/08/05 07:46:06;;;;;;;6.50;5.30;;;;;;;;;;5050252;28;20417;-71
2023/08/05 07:48:35;;;;;;;8.25;4.88;;;;;;;;;;5050343;28;20472;-71
2023/08/05 07:51:02;;;;;;;5.45;4.78;;;;;;;;;;5049592;28;20440;-72
2023/08/05 07:53:30;;;;;;;6.35;5.47;;;;;;;;;;5049813;28;20051;-71
2023/08/05 07:55:58;;;;;;;6.55;5.05;;;;;;;;;;5050715;28;20052;-71
2023/08/05 07:58:24;;;;;;;6.15;5.35;;;;;;;;;;5049752;28;20041;-70
2023/08/05 08:00:56;;;;;;;7.35;5.50;;;;;;;;;;5049933;28;20136;-71
2023/08/05 08:03:27;;;;;;;6.47;5.03;;;;;;;;;;5050018;28;20049;-70
2023/08/05 08:05:53;;;;;;;6.18;5.13;;;;;;;;;;5050000;28;20486;-71
2023/08/05 08:08:21;;;;;;;5.65;4.97;;;;;;;;;;5050399;28;20078;-70
2023/08/05 08:10:47;;;;;;;8.13;5.45;;;;;;;;;;5050122;28;20055;-71
2023/08/05 08:13:14;;;;;;;5.43;4.82;;;;;;;;;;5050108;28;20045;-70
2023/08/05 08:15:40;;;;;;;5.70;4.75;;;;;;;;;;5050265;28;20047;-70
2023/08/05 08:18:08;;;;;;;6.70;5.18;;;;;;;;;;5049839;28;20051;-72
2023/08/05 08:20:35;;;;;;;5.40;4.70;;;;;;;;;;5049570;28;20061;-71
2023/08/05 08:23:01;;;;;;;6.60;5.13;;;;;;;;;;5049833;28;20041;-71
2023/08/05 08:25:28;;;;;;;6.00;4.78;;;;;;;;;;5050089;28;20534;-71
2023/08/05 08:27:54;;;;;;;5.93;4.78;;;;;;;;;;5049994;28;20049;-71
2023/08/05 08:30:21;;;;;;;8.15;4.72;;;;;;;;;;5049246;28;20509;-71
2023/08/05 08:32:47;;;;;;;5.40;4.63;;;;;;;;;;5050036;28;20325;-71
2023/08/05 08:35:16;;;;;;;5.93;4.15;;;;;;;;;;5049681;28;20049;-70
2023/08/05 08:37:42;;;;;;;6.80;4.40;;;;;;;;;;5049807;28;20055;-71
2023/08/05 08:40:10;;;;;;;6.22;4.22;;;;;;;;;;5049057;28;20048;-71
2023/08/05 08:42:37;;;;;;;5.47;4.40;;;;;;;;;;5050111;28;20071;-71
2023/08/05 08:45:05;;;;;;;4.53;3.88;;;;;;;;;;5049500;28;20141;-71
2023/08/05 08:47:34;;;;;;;7.35;4.82;;;;;;;;;;5049979;28;20052;-71
2023/08/05 08:50:01;;;;;;;5.93;3.97;;;;;;;;;;5049157;28;20136;-71
2023/08/05 08:52:30;;;;;;;3.30;3.00;;;;;;;;;;5050241;28;20483;-71
2023/08/05 08:54:57;;;;;;;3.30;3.00;;;;;;;;;;5049545;28;20136;-70
2023/08/05 08:57:24;;;;;;;4.97;3.20;;;;;;;;;;5049712;28;20045;-71
2023/08/05 08:59:51;;;;;;;3.60;3.08;;;;;;;;;;5048976;28;20051;-71
2023/08/05 09:02:25;;;;;;;4.00;3.13;;;;;;;;;;5050018;28;20048;-71
2023/08/05 09:04:52;;;;;;;3.53;3.05;;;;;;;;;;5053745;28;20049;-70
2023/08/05 09:07:21;;;;;;;4.32;3.03;;;;;;;;;;5053231;28;20053;-71
2023/08/05 09:09:49;;;;;;;3.13;2.45;;;;;;;;;;5053242;28;20474;-71
2023/08/05 09:12:15;;;;;;;2.88;2.58;;;;;;;;;;5053110;28;20049;-71
2023/08/05 09:14:42;;;;;;;3.75;2.40;;;;;;;;;;5053582;28;20056;-71
2023/08/05 09:17:08;;;;;;;3.80;2.20;;;;;;;;;;5053373;28;20502;-71
2023/08/05 09:19:35;;;;;;;4.07;2.30;;;;;;;;;;5053201;28;20048;-71
2023/08/05 09:22:03;;;;;;;3.40;2.20;;;;;;;;;;5053407;28;20392;-72
2023/08/05 09:24:29;;;;;;;3.72;2.15;;;;;;;;;;5053249;28;20045;-71
2023/08/05 09:26:59;;;;;;;4.93;2.33;;;;;;;;;;5052615;28;20049;-71
2023/08/05 09:29:26;;;;;;;3.20;2.08;;;;;;;;;;5053033;28;20049;-71
2023/08/05 09:32:00;;;;;;;4.63;1.95;;;;;;;;;;5052847;28;20041;-71
2023/08/05 09:34:34;;;;;;;2.67;1.70;;;;;;;;;;5053460;28;20530;-71
2023/08/05 09:37:00;;;;;;;2.22;1.55;;;;;;;;;;5053183;28;20131;-72
2023/08/05 09:39:30;;;;;;;3.08;1.85;;;;;;;;;;5052488;28;20335;-72
2023/08/05 09:42:00;;;;;;;2.38;1.52;;;;;;;;;;5052825;28;20139;-71
2023/08/05 09:44:27;;;;;;;2.05;1.50;;;;;;;;;;5052727;28;20049;-71
2023/08/05 09:46:58;;;;;;;2.53;1.55;;;;;;;;;;5053047;28;20045;-71
2023/08/05 09:49:25;;;;;;;2.30;1.48;;;;;;;;;;5052595;28;20076;-71
2023/08/05 09:51:53;;;;;;;2.85;1.50;;;;;;;;;;5052594;28;20095;-71
2023/08/05 09:54:28;;;;;;;1.55;1.40;;;;;;;;;;5052133;28;20535;-71
2023/08/05 09:56:56;;;;;;;2.15;1.80;;;;;;;;;;5052872;28;20333;-71
2023/08/05 09:59:25;;;;;;;1.50;1.40;;;;;;;;;;5052467;28;20280;-71
2023/08/05 10:01:52;;;;;;;2.47;1.60;;;;;;;;;;5052410;28;20041;-71
2023/08/05 10:04:20;;;;;;;1.83;1.50;;;;;;;;;;5052159;28;20048;-70
2023/08/05 10:06:47;;;;;;;1.50;1.40;;;;;;;;;;5053279;22;20045;-71
2023/08/05 10:09:14;;;;;;;1.50;1.40;;;;;;;;;;5031434;28;20096;-71
2023/08/05 10:11:42;;;;;;;1.65;1.38;;;;;;;;;;5031632;28;20045;-71
2023/08/05 10:14:10;;;;;;;1.80;1.50;;;;;;;;;;5032180;28;20398;-70
2023/08/05 10:16:39;;;;;;;2.33;1.45;;;;;;;;;;5031166;28;20060;-71
2023/08/05 10:19:05;;;;;;;2.58;1.40;;;;;;;;;;5031882;28;20045;-71
2023/08/05 10:21:36;;;;;;;1.60;1.50;;;;;;;;;;5031026;28;20053;-70
2023/08/05 10:24:03;;;;;;;1.92;1.40;;;;;;;;;;5032665;28;20408;-70
2023/08/05 10:26:43;;;;;;;1.33;1.23;;;;;;;;;;5031249;28;20053;-70
2023/08/05 10:29:27;;;;;;;2.35;1.20;;;;;;;;;;5032025;28;20108;-70
2023/08/05 10:32:10;;;;;;;4.50;1.13;;;;;;;;;;5030976;28;20495;-70
2023/08/05 10:34:36;;;;;;;2.22;1.17;;;;;;;;;;5031853;28;20441;-70
2023/08/05 10:37:03;;;;;;;2.85;1.40;;;;;;;;;;5031065;28;20410;-70
2023/08/05 10:39:43;;;;;;;1.75;1.20;;;;;;;;;;5031064;28;20058;-70
2023/08/05 10:42:34;;;;;;;1.40;1.08;;;;;;;;;;5030657;28;20483;-70
2023/08/05 10:45:01;;;;;;;1.30;1.10;;;;;;;;;;5031510;28;20057;-70
2023/08/05 10:47:29;;;;;;;2.38;1.55;;;;;;;;;;5030818;28;20515;-70
2023/08/05 10:49:57;;;;;;;1.23;1.10;;;;;;;;;;5031635;28;20051;-71
2023/08/05 10:52:24;;;;;;;1.13;1.05;;;;;;;;;;5032577;28;20053;-70
2023/08/05 10:54:52;;;;;;;1.23;1.13;;;;;;;;;;5032703;28;20139;-70
2023/08/05 10:57:47;;;;;;;1.10;1.00;;;;;;;;;;5032329;28;20054;-70
2023/08/05 11:00:24;;;;;;;1.80;1.30;;;;;;;;;;5031817;28;20051;-71
2023/08/05 11:03:24;;;;;;;1.50;1.20;;;;;;;;;;5030281;28;20522;-70
2023/08/05 11:05:51;;;;;;;1.75;1.20;;;;;;;;;;5030675;28;20434;-70
2023/08/05 11:08:20;;;;;;;1.55;1.33;;;;;;;;;;5030160;28;20503;-71
2023/08/05 11:10:47;;;;;;;2.17;1.48;;;;;;;;;;5029946;28;20289;-71
2023/08/05 11:13:14;;;;;;;2.67;1.52;;;;;;;;;;5030880;28;20543;-70
2023/08/05 11:15:41;;;;;;;2.03;1.40;;;;;;;;;;5030827;28;20063;-70
2023/08/05 11:18:08;;;;;;;1.40;1.27;;;;;;;;;;5030495;28;20099;-70
2023/08/05 11:20:37;;;;;;;1.27;1.17;;;;;;;;;;5030223;28;20045;-70
2023/08/05 11:23:03;;;;;;;2.47;1.20;;;;;;;;;;5030797;28;20438;-70
2023/08/05 11:25:30;;;;;;;3.60;1.30;;;;;;;;;;5029540;28;20092;-70
2023/08/05 11:27:57;;;;;;;1.35;1.20;;;;;;;;;;5030561;28;20064;-70
2023/08/05 11:30:23;;;;;;;3.05;1.02;;;;;;;;;;5030472;28;20049;-70
2023/08/05 11:32:52;;;;;;;1.13;1.00;;;;;;;;;;5031092;28;20215;-70
2023/08/05 11:35:19;;;;;;;2.58;1.40;;;;;;;;;;5030099;28;20191;-70
2023/08/05 11:37:47;;;;;;;1.48;1.10;;;;;;;;;;5030545;28;20045;-70
2023/08/05 11:40:13;;;;;;;1.65;1.20;;;;;;;;;;5027186;28;20048;-70
2023/08/05 11:42:40;;;;;;;1.88;1.25;;;;;;;;;;5045447;28;20060;-70
2023/08/05 11:45:11;;;;;;;2.72;1.40;;;;;;;;;;5030429;28;20430;-71
2023/08/05 11:47:38;;;;;;;1.10;1.00;;;;;;;;;;5030267;28;20539;-71
2023/08/05 11:50:05;;;;;;;1.20;1.10;;;;;;;;;;5029735;28;20053;-71
2023/08/05 11:52:32;;;;;;;1.23;1.13;;;;;;;;;;5029802;28;20430;-70
2023/08/05 11:55:01;;;;;;;1.27;1.10;;;;;;;;;;5029653;28;20045;-70
2023/08/05 11:57:29;;;;;;;1.88;1.17;;;;;;;;;;5029146;28;20064;-70
2023/08/05 11:59:56;;;;;;;4.50;1.45;;;;;;;;;;5029723;28;20487;-70
2023/08/05 12:02:25;;;;;;;3.92;1.30;;;;;;;;;;5029608;28;20486;-70
2023/08/05 12:04:56;;;;;;;1.52;1.40;;;;;;;;;;5030077;28;20042;-70
2023/08/05 12:07:23;;;;;;;1.35;1.23;;;;;;;;;;5029209;28;20128;-71
2023/08/05 12:10:08;;;;;;;1.40;1.30;;;;;;;;;;5029593;28;20047;-71
2023/08/05 12:12:35;;;;;;;1.70;1.38;;;;;;;;;;5029145;28;20050;-71
2023/08/05 12:15:12;;;;;;;2.63;1.70;;;;;;;;;;5030093;28;20045;-71
2023/08/05 12:17:39;;;;;;;1.92;1.65;;;;;;;;;;5028916;28;20097;-70
2023/08/05 12:20:09;;;;;;;7.10;1.80;;;;;;;;;;5029088;28;20064;-71
2023/08/05 12:22:36;;;;;;;3.30;2.00;;;;;;;;;;5029143;28;20060;-70
2023/08/05 12:25:04;;;;;;;1.55;1.45;;;;;;;;;;5029715;28;20060;-70
2023/08/05 12:27:31;;;;;;;1.77;1.65;;;;;;;;;;5029533;28;20181;-70
2023/08/05 12:29:58;;;;;;;1.73;1.63;;;;;;;;;;5028829;28;20300;-70
2023/08/05 12:32:25;;;;;;;5.07;2.10;;;;;;;;;;5029586;28;20495;-70
2023/08/05 12:34:51;;;;;;;4.60;1.65;;;;;;;;;;5029436;28;20411;-71
2023/08/05 12:37:18;;;;;;;3.63;1.75;;;;;;;;;;5032987;28;20057;-71
2023/08/05 12:39:44;;;;;;;1.73;1.50;;;;;;;;;;5033263;28;20522;-71
2023/08/05 12:42:11;;;;;;;1.83;1.50;;;;;;;;;;5034192;28;20444;-71
2023/08/05 12:44:39;;;;;;;2.25;1.42;;;;;;;;;;5033465;28;20076;-70
2023/08/05 12:47:06;;;;;;;1.77;1.40;;;;;;;;;;5033326;28;20042;-70
2023/08/05 12:49:32;;;;;;;2.03;1.52;;;;;;;;;;5032452;28;20046;-71
2023/08/05 12:51:59;;;;;;;1.80;1.60;;;;;;;;;;5033479;28;20410;-71
2023/08/05 12:54:25;;;;;;;2.33;1.60;;;;;;;;;;5033344;28;20049;-70
2023/08/05 12:56:52;;;;;;;2.72;1.60;;;;;;;;;;5033657;28;20052;-71
2023/08/05 12:59:18;;;;;;;2.40;1.50;;;;;;;;;;5033654;28;20045;-70
2023/08/05 13:01:46;;;;;;;1.63;1.52;;;;;;;;;;5032225;28;20045;-70
2023/08/05 13:04:13;;;;;;;1.77;1.50;;;;;;;;;;5033444;28;20626;-70
2023/08/05 13:06:40;;;;;;;1.65;1.42;;;;;;;;;;5032373;28;20063;-71
2023/08/05 13:09:06;;;;;;;2.25;1.50;;;;;;;;;;5032874;28;20060;-71
2023/08/05 13:11:33;;;;;;;1.98;1.50;;;;;;;;;;5031944;28;20050;-71
2023/08/05 13:13:59;;;;;;;2.65;1.30;;;;;;;;;;5033152;28;20056;-71
2023/08/05 13:16:26;;;;;;;3.72;1.67;;;;;;;;;;5032319;28;20140;-71
2023/08/05 13:18:54;;;;;;;1.30;1.20;;;;;;;;;;5032957;28;20045;-70
2023/08/05 13:21:21;;;;;;;3.22;1.65;;;;;;;;;;5031683;28;20045;-71
2023/08/05 13:23:47;;;;;;;1.50;1.40;;;;;;;;;;5032688;28;20045;-71
2023/08/05 13:26:14;;;;;;;2.28;1.50;;;;;;;;;;5032116;28;20426;-70
2023/08/05 13:28:41;;;;;;;1.50;1.40;;;;;;;;;;5032862;28;20136;-71
2023/08/05 13:31:07;;;;;;;1.55;1.40;;;;;;;;;;5031919;28;20052;-71
2023/08/05 13:33:34;;;;;;;2.30;1.58;;;;;;;;;;5032086;28;20132;-71
2023/08/05 13:36:02;;;;;;;2.05;1.50;;;;;;;;;;5032571;28;20058;-71
2023/08/05 13:38:28;;;;;;;1.52;1.30;;;;;;;;;;5032142;28;20050;-70
2023/08/05 13:40:55;;;;;;;2.65;1.38;;;;;;;;;;5032038;28;20045;-70
2023/08/05 13:43:22;;;;;;;1.63;1.52;;;;;;;;;;5032487;28;20041;-71
2023/08/05 13:45:49;;;;;;;1.55;1.38;;;;;;;;;;5033195;28;20046;-71
2023/08/05 13:48:16;;;;;;;2.03;1.50;;;;;;;;;;5031427;28;20053;-71
2023/08/05 13:50:42;;;;;;;1.98;1.77;;;;;;;;;;5031290;28;20049;-71
2023/08/05 13:53:10;;;;;;;1.92;1.50;;;;;;;;;;5032092;28;20049;-71
2023/08/05 13:55:37;;;;;;;1.60;1.50;;;;;;;;;;5032640;28;20072;-71
2023/08/05 13:58:03;;;;;;;2.72;1.70;;;;;;;;;;5031260;28;20476;-70
2023/08/05 14:00:30;;;;;;;2.03;1.77;;;;;;;;;;5031521;28;20046;-70
2023/08/05 14:02:58;;;;;;;1.83;1.38;;;;;;;;;;5032610;28;20052;-70
2023/08/05 14:05:24;;;;;;;2.47;1.70;;;;;;;;;;5031121;28;20052;-70
2023/08/05 14:07:51;;;;;;;4.07;1.67;;;;;;;;;;5031585;28;20160;-71
2023/08/05 14:10:19;;;;;;;2.00;1.55;;;;;;;;;;5030714;28;20136;-71
2023/08/05 14:12:45;;;;;;;2.78;1.60;;;;;;;;;;5031283;28;20046;-71
2023/08/05 14:15:12;;;;;;;1.80;1.42;;;;;;;;;;5030972;28;20041;-71
2023/08/05 14:17:38;;;;;;;1.58;1.45;;;;;;;;;;5031866;28;20045;-70
2023/08/05 14:20:06;;;;;;;2.25;1.67;;;;;;;;;;5030419;28;20062;-70
2023/08/05 14:22:33;;;;;;;2.03;1.80;;;;;;;;;;5031584;28;20053;-70
2023/08/05 14:24:59;;;;;;;2.75;1.52;;;;;;;;;;5030769;28;20420;-70
2023/08/05 14:27:27;;;;;;;1.75;1.63;;;;;;;;;;5031863;28;20476;-70
2023/08/05 14:29:54;;;;;;;2.50;1.63;;;;;;;;;;5030049;28;20085;-71
2023/08/05 14:32:20;;;;;;;4.53;2.00;;;;;;;;;;5031387;28;20049;-70
2023/08/05 14:34:47;;;;;;;2.60;1.63;;;;;;;;;;5031424;28;20081;-71
2023/08/05 14:37:14;;;;;;;1.85;1.73;;;;;;;;;;5030563;28;20048;-70
2023/08/05 14:39:40;;;;;;;3.53;2.10;;;;;;;;;;5030762;28;20498;-71
2023/08/05 14:42:07;;;;;;;4.25;2.72;;;;;;;;;;5030969;28;20046;-70